Time;durP1;ratioP1;P1;durP2;ratioP2;P2;SDS_P1;SDS_P2;PMS_P1;PMS_P2;Temp;Humidity;BMP_temperature;BMP_pressure;BME280_temperature;BME280_humidity;BME280_pressure;Samples;Min_cycle;Max_cycle;Signal;HPM_P1;HPM_P2
2023/12/08 00:00:36;;;;;;;0.00;0.00;;;6.00;99.90;;;;;;5052053;28;20040;-80
2023/12/08 00:03:02;;;;;;;0.57;0.40;;;6.00;99.90;;;;;;5053815;28;20110;-80
2023/12/08 00:05:28;;;;;;;0.22;0.20;;;6.10;99.90;;;;;;5051730;28;20099;-79
2023/12/08 00:07:53;;;;;;;0.10;0.10;;;6.20;99.90;;;;;;5051612;28;20045;-81
2023/12/08 00:10:19;;;;;;;0.20;0.20;;;6.00;99.90;;;;;;5035418;28;20044;-80
2023/12/08 00:12:45;;;;;;;0.32;0.32;;;6.20;99.90;;;;;;5053584;28;20025;-80
2023/12/08 00:15:11;;;;;;;0.15;0.10;;;6.20;99.90;;;;;;5053080;28;20060;-81
2023/12/08 00:17:37;;;;;;;0.10;0.10;;;6.00;99.90;;;;;;5051859;28;20036;-79
2023/12/08 00:20:03;;;;;;;0.52;0.52;;;5.90;99.90;;;;;;5051497;28;20083;-80
2023/12/08 00:22:29;;;;;;;0.00;0.00;;;5.90;99.90;;;;;;5053345;28;20033;-77
2023/12/08 00:24:55;;;;;;;0.00;0.00;;;6.00;99.90;;;;;;5051746;28;20021;-77
2023/12/08 00:27:22;;;;;;;1.95;0.68;;;6.00;99.90;;;;;;5052769;28;20100;-81
2023/12/08 00:29:47;;;;;;;2.60;0.60;;;6.00;99.90;;;;;;5053139;28;20100;-79
2023/12/08 00:32:13;;;;;;;0.70;0.52;;;6.10;99.90;;;;;;5051590;28;20112;-81
2023/12/08 00:34:40;;;;;;;0.00;0.00;;;6.00;99.90;;;;;;5051472;28;20032;-79
2023/12/08 00:37:06;;;;;;;0.30;0.30;;;5.90;99.90;;;;;;5051598;28;20025;-81
2023/12/08 00:39:32;;;;;;;0.38;0.38;;;5.90;99.90;;;;;;5052720;28;20482;-82
2023/12/08 00:41:58;;;;;;;0.10;0.10;;;5.80;99.90;;;;;;5052650;28;20032;-80
2023/12/08 00:44:25;;;;;;;1.75;0.38;;;5.80;99.90;;;;;;5052552;28;20029;-81
2023/12/08 00:46:51;;;;;;;0.38;0.38;;;5.80;99.90;;;;;;5052848;28;20070;-79
2023/12/08 00:49:16;;;;;;;2.80;0.73;;;5.80;99.90;;;;;;5052335;28;20025;-80
2023/12/08 00:51:42;;;;;;;0.10;0.10;;;5.70;99.90;;;;;;5052631;28;20025;-81
2023/12/08 00:54:08;;;;;;;1.92;1.50;;;5.80;99.90;;;;;;5052614;28;20159;-80
2023/12/08 00:56:34;;;;;;;0.43;0.40;;;5.80;99.90;;;;;;5052292;28;20025;-79
2023/12/08 00:59:00;;;;;;;1.90;1.77;;;5.70;99.90;;;;;;5052642;28;20116;-81
2023/12/08 01:01:26;;;;;;;0.55;0.55;;;5.70;99.90;;;;;;5052400;28;20025;-82
2023/12/08 01:03:52;;;;;;;4.55;0.40;;;5.60;99.90;;;;;;5052128;28;20037;-79
2023/12/08 01:06:18;;;;;;;1.23;0.55;;;5.50;99.90;;;;;;5051143;28;20512;-81
2023/12/08 01:08:44;;;;;;;1.33;1.13;;;5.50;99.90;;;;;;5052764;28;20017;-79
2023/12/08 01:11:10;;;;;;;3.00;1.75;;;5.40;99.90;;;;;;5052301;28;20033;-79
2023/12/08 01:13:36;;;;;;;0.63;0.63;;;5.40;99.90;;;;;;5052365;28;20096;-76
2023/12/08 01:16:01;;;;;;;0.22;0.22;;;5.40;99.90;;;;;;5052569;28;20029;-81
2023/12/08 01:18:27;;;;;;;0.68;0.68;;;5.30;99.90;;;;;;5053662;28;20048;-77
2023/12/08 01:20:54;;;;;;;2.47;0.43;;;5.20;99.90;;;;;;5056484;28;20043;-79
2023/12/08 01:23:19;;;;;;;0.20;0.20;;;5.30;99.90;;;;;;5055255;28;20033;-80
2023/12/08 01:25:45;;;;;;;1.88;1.17;;;5.40;99.90;;;;;;5056398;28;20543;-78
2023/12/08 01:28:11;;;;;;;0.20;0.20;;;5.40;99.90;;;;;;5056268;28;20017;-81
2023/12/08 01:30:37;;;;;;;0.93;0.20;;;5.40;99.90;;;;;;5056321;28;20500;-81
2023/12/08 01:33:03;;;;;;;0.10;0.10;;;5.50;99.90;;;;;;5055933;28;20478;-77
2023/12/08 01:35:29;;;;;;;0.10;0.10;;;5.40;99.90;;;;;;5056265;28;20020;-79
2023/12/08 01:37:55;;;;;;;0.80;0.65;;;5.40;99.90;;;;;;5054895;28;20020;-75
2023/12/08 01:40:20;;;;;;;0.25;0.25;;;5.50;99.90;;;;;;5056093;28;20052;-75
2023/12/08 01:42:47;;;;;;;2.72;1.08;;;5.60;99.90;;;;;;5054602;28;20031;-74
2023/12/08 01:45:13;;;;;;;0.45;0.40;;;5.60;99.90;;;;;;5056387;28;20029;-75
2023/12/08 01:47:41;;;;;;;1.48;0.77;;;5.50;99.90;;;;;;5055589;28;20385;-75
2023/12/08 01:50:08;;;;;;;0.10;0.10;;;5.40;99.90;;;;;;5054947;28;20477;-81
2023/12/08 01:52:36;;;;;;;0.30;0.30;;;5.50;99.90;;;;;;5055773;28;20354;-79
2023/12/08 01:55:02;;;;;;;2.10;1.27;;;5.60;99.90;;;;;;5056201;28;20405;-81
2023/12/08 01:57:29;;;;;;;0.82;0.60;;;5.70;99.90;;;;;;5055862;28;20029;-79
2023/12/08 01:59:56;;;;;;;3.53;0.85;;;5.70;99.90;;;;;;5054114;28;20477;-74
2023/12/08 02:02:22;;;;;;;0.35;0.20;;;5.70;99.90;;;;;;5054561;28;20021;-75
2023/12/08 02:04:49;;;;;;;6.93;2.88;;;5.70;99.90;;;;;;5055516;28;20072;-75
2023/12/08 02:07:15;;;;;;;0.65;0.65;;;5.70;99.90;;;;;;5055692;28;20025;-75
2023/12/08 02:09:41;;;;;;;1.13;0.52;;;5.60;99.90;;;;;;5055701;28;20047;-77
2023/12/08 02:12:09;;;;;;;0.52;0.52;;;5.60;99.90;;;;;;5055230;28;20025;-75
2023/12/08 02:14:37;;;;;;;1.33;0.57;;;5.60;99.90;;;;;;5054046;28;20025;-75
2023/12/08 02:17:11;;;;;;;1.02;0.98;;;5.70;99.90;;;;;;5054406;28;20395;-76
2023/12/08 02:19:37;;;;;;;11.25;3.33;;;5.60;99.90;;;;;;5054183;28;20555;-75
2023/12/08 02:22:05;;;;;;;0.00;0.00;;;5.50;99.90;;;;;;5055368;28;20021;-75
2023/12/08 02:24:30;;;;;;;0.30;0.30;;;5.60;99.90;;;;;;5055267;28;20032;-76
2023/12/08 02:26:56;;;;;;;2.55;0.98;;;5.70;99.90;;;;;;5055292;28;20025;-75
2023/12/08 02:29:23;;;;;;;0.88;0.52;;;5.70;99.90;;;;;;5054387;28;20029;-75
2023/12/08 02:32:00;;;;;;;1.38;1.27;;;5.80;99.90;;;;;;5055057;28;20078;-75
2023/12/08 02:34:27;;;;;;;7.43;1.00;;;5.70;99.90;;;;;;5054951;28;20052;-75
2023/12/08 02:36:54;;;;;;;1.77;0.85;;;5.80;99.90;;;;;;5055075;28;20064;-77
2023/12/08 02:39:21;;;;;;;1.42;1.27;;;5.80;99.90;;;;;;5055099;28;20470;-75
2023/12/08 02:41:46;;;;;;;1.15;0.93;;;5.80;99.90;;;;;;5053641;28;20040;-75
2023/12/08 02:44:12;;;;;;;1.48;1.10;;;5.90;99.90;;;;;;5053451;28;20048;-75
2023/12/08 02:46:39;;;;;;;1.33;1.23;;;5.90;99.90;;;;;;5054688;28;20021;-75
2023/12/08 02:49:04;;;;;;;1.58;1.15;;;6.00;99.90;;;;;;5054684;28;20025;-75
2023/12/08 02:51:30;;;;;;;7.57;1.80;;;6.00;99.90;;;;;;5054828;28;20079;-78
2023/12/08 02:53:56;;;;;;;2.50;1.20;;;6.00;99.90;;;;;;5036773;28;20048;-75
2023/12/08 02:56:22;;;;;;;2.13;0.75;;;5.90;99.90;;;;;;5054882;28;20115;-75
2023/12/08 02:58:48;;;;;;;2.35;1.25;;;6.00;99.90;;;;;;5054150;28;20035;-76
2023/12/08 03:01:14;;;;;;;4.50;1.42;;;6.00;99.90;;;;;;5054783;28;20029;-75
2023/12/08 03:03:40;;;;;;;3.42;1.17;;;5.90;99.90;;;;;;5052952;28;20386;-76
2023/12/08 03:06:06;;;;;;;2.03;1.25;;;5.90;99.90;;;;;;5054543;28;20116;-76
2023/12/08 03:08:32;;;;;;;1.85;1.67;;;6.10;99.90;;;;;;5049554;28;20079;-75
2023/12/08 03:10:58;;;;;;;0.57;0.32;;;6.00;99.90;;;;;;5053736;28;20037;-75
2023/12/08 03:13:24;;;;;;;1.27;1.27;;;6.00;99.90;;;;;;5052009;28;20100;-75
2023/12/08 03:15:50;;;;;;;1.17;0.52;;;6.00;99.90;;;;;;5054181;28;20029;-75
2023/12/08 03:18:15;;;;;;;1.45;1.33;;;6.00;99.90;;;;;;5054232;28;20128;-77
2023/12/08 03:20:41;;;;;;;2.75;1.30;;;6.10;99.90;;;;;;5054046;28;20602;-83
2023/12/08 03:23:07;;;;;;;1.58;1.17;;;6.00;99.90;;;;;;5054369;28;20032;-83
2023/12/08 03:25:32;;;;;;;1.77;0.38;;;6.00;99.90;;;;;;5053927;28;20385;-83
2023/12/08 03:27:58;;;;;;;2.80;1.77;;;6.10;99.90;;;;;;5053922;28;20029;-83
2023/12/08 03:30:24;;;;;;;1.70;1.42;;;6.10;99.90;;;;;;5054209;28;20536;-83
2023/12/08 03:32:50;;;;;;;1.48;1.38;;;6.20;99.90;;;;;;5052844;28;20385;-83
2023/12/08 03:35:16;;;;;;;0.43;0.43;;;6.20;99.90;;;;;;5054116;28;20029;-83
2023/12/08 03:37:41;;;;;;;0.35;0.35;;;6.10;99.90;;;;;;5053922;28;20318;-83
2023/12/08 03:40:09;;;;;;;0.00;0.00;;;6.20;99.90;;;;;;5053782;28;20041;-83
2023/12/08 03:42:36;;;;;;;0.35;0.35;;;6.20;99.90;;;;;;5051491;28;20029;-83
2023/12/08 03:45:05;;;;;;;0.50;0.50;;;6.30;99.90;;;;;;5052590;28;20477;-83
2023/12/08 03:47:31;;;;;;;1.17;1.17;;;6.10;99.90;;;;;;5052585;28;20474;-82
2023/12/08 03:49:57;;;;;;;0.57;0.55;;;6.10;99.90;;;;;;5035795;28;20025;-83
2023/12/08 03:52:23;;;;;;;0.60;0.47;;;6.10;99.90;;;;;;5053705;28;20409;-83
2023/12/08 03:54:48;;;;;;;1.88;0.80;;;6.10;99.90;;;;;;5053371;28;20025;-83
2023/12/08 03:57:14;;;;;;;6.10;3.05;;;6.10;99.90;;;;;;5053474;28;20488;-83
2023/12/08 03:59:43;;;;;;;1.23;0.40;;;6.10;99.90;;;;;;5053385;28;20040;-83
2023/12/08 04:02:09;;;;;;;1.38;1.27;;;6.20;99.90;;;;;;5053599;28;20107;-82
2023/12/08 04:04:34;;;;;;;1.55;1.08;;;6.30;99.90;;;;;;5053521;28;20041;-83
2023/12/08 04:07:00;;;;;;;1.65;1.08;;;6.20;99.90;;;;;;5039326;28;20040;-83
2023/12/08 04:09:26;;;;;;;0.40;0.40;;;6.20;99.90;;;;;;5052220;28;20021;-82
2023/12/08 04:11:52;;;;;;;0.95;0.95;;;6.20;99.90;;;;;;5052924;28;20033;-83
2023/12/08 04:14:17;;;;;;;3.92;1.20;;;6.40;99.90;;;;;;5053268;28;20055;-83
2023/12/08 04:16:43;;;;;;;5.70;1.75;;;6.40;99.90;;;;;;5052792;28;20397;-83
2023/12/08 04:19:12;;;;;;;0.30;0.30;;;6.20;99.90;;;;;;5053306;28;20025;-83
2023/12/08 04:21:38;;;;;;;0.00;0.00;;;6.20;99.90;;;;;;5052015;28;20389;-83
2023/12/08 04:24:04;;;;;;;0.85;0.52;;;6.30;99.90;;;;;;5053192;28;20025;-83
2023/12/08 04:26:31;;;;;;;0.80;0.80;;;6.40;99.90;;;;;;5051521;28;20029;-83
2023/12/08 04:28:56;;;;;;;1.50;0.70;;;6.30;99.90;;;;;;5053003;28;20052;-83
2023/12/08 04:31:22;;;;;;;2.17;0.98;;;6.50;99.90;;;;;;5052972;28;20485;-83
2023/12/08 04:33:48;;;;;;;1.50;0.75;;;6.50;99.90;;;;;;5053163;28;20025;-83
2023/12/08 04:36:14;;;;;;;0.90;0.90;;;6.50;99.90;;;;;;5052774;28;20017;-83
2023/12/08 04:38:40;;;;;;;4.28;2.10;;;6.40;99.90;;;;;;5052802;28;20474;-83
2023/12/08 04:41:06;;;;;;;2.53;0.70;;;6.40;99.90;;;;;;5052404;28;20041;-83
2023/12/08 04:43:31;;;;;;;1.38;1.27;;;6.50;99.90;;;;;;5053045;28;20032;-83
2023/12/08 04:45:58;;;;;;;1.17;1.08;;;6.50;99.90;;;;;;5052414;28;20047;-83
2023/12/08 04:48:24;;;;;;;6.68;1.40;;;6.60;99.90;;;;;;5051644;28;20024;-83
2023/12/08 04:50:51;;;;;;;4.38;2.33;;;6.60;99.90;;;;;;5052748;28;20095;-82
2023/12/08 04:53:17;;;;;;;1.85;0.82;;;6.80;99.90;;;;;;5052282;28;20432;-83
2023/12/08 04:55:43;;;;;;;0.98;0.98;;;6.80;99.90;;;;;;5052284;28;20029;-82
2023/12/08 04:58:09;;;;;;;2.72;2.38;;;6.80;99.90;;;;;;5052338;28;20021;-82
2023/12/08 05:00:34;;;;;;;1.55;0.73;;;6.70;99.90;;;;;;5052562;28;20453;-83
2023/12/08 05:03:00;;;;;;;0.52;0.52;;;6.70;99.90;;;;;;5052383;28;20527;-83
2023/12/08 05:05:26;;;;;;;4.70;2.10;;;6.80;99.90;;;;;;5052293;28;20036;-81
2023/12/08 05:07:52;;;;;;;8.13;2.20;;;6.80;99.90;;;;;;5052652;28;20070;-82
2023/12/08 05:10:18;;;;;;;0.00;0.00;;;6.80;99.90;;;;;;5050884;28;20021;-83
2023/12/08 05:12:44;;;;;;;11.40;2.08;;;6.90;99.90;;;;;;5052310;28;20478;-82
2023/12/08 05:15:10;;;;;;;2.08;1.40;;;6.80;99.90;;;;;;5052366;28;20026;-81
2023/12/08 05:17:36;;;;;;;1.75;0.93;;;6.80;99.90;;;;;;5052078;28;20443;-81
2023/12/08 05:20:03;;;;;;;1.13;0.40;;;6.80;99.90;;;;;;5052181;28;20044;-80
2023/12/08 05:22:29;;;;;;;0.45;0.40;;;6.80;99.90;;;;;;5052260;28;20044;-82
2023/12/08 05:24:55;;;;;;;6.32;2.25;;;6.90;99.90;;;;;;5052063;28;20025;-81
2023/12/08 05:27:21;;;;;;;10.68;4.25;;;7.00;99.90;;;;;;5051999;28;20056;-83
2023/12/08 05:29:47;;;;;;;0.45;0.45;;;7.00;99.90;;;;;;5052371;28;20048;-80
2023/12/08 05:32:12;;;;;;;0.35;0.35;;;7.00;99.90;;;;;;5052257;28;20028;-81
2023/12/08 05:34:38;;;;;;;5.75;3.38;;;7.00;99.90;;;;;;5052241;28;20048;-81
2023/12/08 05:37:04;;;;;;;8.25;4.25;;;7.10;99.90;;;;;;5050997;28;20028;-82
2023/12/08 05:39:30;;;;;;;1.15;0.65;;;7.00;99.90;;;;;;5052178;28;20385;-80
2023/12/08 05:41:56;;;;;;;2.67;1.98;;;7.20;99.90;;;;;;5052131;28;20083;-82
2023/12/08 05:44:22;;;;;;;1.33;1.23;;;7.10;99.90;;;;;;5050780;28;20448;-82
2023/12/08 05:46:47;;;;;;;1.27;0.80;;;7.10;99.90;;;;;;5052096;28;20027;-83
2023/12/08 05:49:13;;;;;;;1.67;1.58;;;7.10;99.90;;;;;;5053379;28;20032;-82
2023/12/08 05:51:39;;;;;;;2.88;2.40;;;7.40;99.90;;;;;;5052077;28;20441;-81
2023/12/08 05:54:05;;;;;;;8.90;3.33;;;7.30;99.90;;;;;;5051646;28;20052;-81
2023/12/08 05:56:31;;;;;;;0.10;0.10;;;7.50;99.90;;;;;;5050559;28;20500;-77
2023/12/08 05:58:57;;;;;;;6.25;3.72;;;7.50;99.90;;;;;;5051965;28;20462;-78
2023/12/08 06:01:22;;;;;;;0.00;0.00;;;7.40;99.90;;;;;;5051898;28;20082;-76
2023/12/08 06:03:49;;;;;;;2.10;1.27;;;7.50;99.90;;;;;;5051685;28;20025;-80
2023/12/08 06:06:15;;;;;;;4.22;2.67;;;7.60;99.90;;;;;;5054173;28;20028;-82
2023/12/08 06:08:41;;;;;;;3.58;1.67;;;7.60;99.90;;;;;;5054576;28;20025;-80
2023/12/08 06:11:07;;;;;;;6.43;2.50;;;7.60;99.90;;;;;;5055715;28;20025;-85
2023/12/08 06:13:33;;;;;;;9.10;2.67;;;7.50;99.90;;;;;;5055296;28;20385;-82
2023/12/08 06:15:59;;;;;;;1.10;0.85;;;7.50;99.90;;;;;;5055571;28;20032;-81
2023/12/08 06:18:25;;;;;;;1.58;1.48;;;7.50;99.90;;;;;;5055211;28;20017;-83
2023/12/08 06:20:51;;;;;;;3.13;2.45;;;7.70;99.90;;;;;;5055156;28;20036;-81
2023/12/08 06:23:17;;;;;;;0.65;0.52;;;7.90;99.90;;;;;;5055451;28;20067;-76
2023/12/08 06:25:43;;;;;;;0.55;0.55;;;7.60;99.90;;;;;;5053982;28;20039;-82
2023/12/08 06:28:08;;;;;;;7.38;5.45;;;7.60;99.90;;;;;;5055294;28;20556;-81
2023/12/08 06:30:34;;;;;;;3.65;3.20;;;7.50;99.90;;;;;;5054199;28;20036;-78
2023/12/08 06:33:00;;;;;;;0.00;0.00;;;7.50;99.90;;;;;;5054137;28;20025;-79
2023/12/08 06:35:26;;;;;;;16.35;5.60;;;7.50;99.90;;;;;;5055264;28;20032;-79
2023/12/08 06:37:51;;;;;;;7.47;1.02;;;7.60;99.90;;;;;;5054085;28;20064;-81
2023/12/08 06:40:17;;;;;;;0.73;0.45;;;7.80;99.90;;;;;;5055122;28;20033;-81
2023/12/08 06:42:43;;;;;;;0.82;0.52;;;7.80;99.90;;;;;;5054919;28;20450;-82
2023/12/08 06:45:09;;;;;;;0.20;0.20;;;7.80;99.90;;;;;;5055516;28;20032;-81
2023/12/08 06:47:35;;;;;;;5.68;1.77;;;7.80;99.90;;;;;;5054775;28;20025;-80
2023/12/08 06:50:01;;;;;;;4.35;3.55;;;8.00;99.90;;;;;;5053441;28;20029;-80
2023/12/08 06:52:27;;;;;;;11.88;6.10;;;7.90;99.90;;;;;;5053836;28;20017;-80
2023/12/08 06:54:52;;;;;;;10.55;3.58;;;7.90;99.90;;;;;;5065528;28;20048;-79
2023/12/08 06:57:18;;;;;;;4.18;2.15;;;7.80;99.90;;;;;;5057250;28;20161;-78
2023/12/08 06:59:44;;;;;;;0.00;0.00;;;7.90;99.90;;;;;;5061265;28;20480;-74
2023/12/08 07:02:10;;;;;;;2.30;0.65;;;8.10;99.90;;;;;;5055634;28;20065;-74
2023/12/08 07:04:36;;;;;;;2.08;1.88;;;8.00;99.90;;;;;;5057877;28;20044;-74
2023/12/08 07:07:01;;;;;;;3.30;0.90;;;8.10;99.90;;;;;;5056353;28;20032;-74
2023/12/08 07:09:27;;;;;;;0.90;0.90;;;8.10;99.90;;;;;;5065606;28;20099;-74
2023/12/08 07:11:53;;;;;;;9.80;1.05;;;8.10;99.90;;;;;;5052404;28;20029;-74
2023/12/08 07:14:20;;;;;;;1.27;0.47;;;8.30;99.90;;;;;;5053019;28;20032;-79
2023/12/08 07:16:46;;;;;;;0.47;0.47;;;8.50;99.90;;;;;;5056815;28;20021;-75
2023/12/08 07:19:12;;;;;;;0.05;0.05;;;8.50;99.90;;;;;;5056481;28;20029;-75
2023/12/08 07:21:42;;;;;;;0.20;0.20;;;8.30;99.90;;;;;;5042886;28;20063;-75
2023/12/08 07:24:09;;;;;;;3.35;1.70;;;8.30;99.90;;;;;;5062863;28;20044;-75
2023/12/08 07:26:34;;;;;;;4.72;2.65;;;8.30;99.90;;;;;;5057614;28;20060;-74
2023/12/08 07:29:00;;;;;;;0.10;0.10;;;8.30;99.90;;;;;;5054164;28;20064;-75
2023/12/08 07:31:26;;;;;;;1.63;1.58;;;8.50;99.90;;;;;;5070134;28;20476;-79
2023/12/08 07:33:52;;;;;;;4.07;3.00;;;8.40;99.90;;;;;;5056726;28;20086;-77
2023/12/08 07:36:18;;;;;;;25.58;5.75;;;8.40;99.90;;;;;;5052418;28;20025;-80
2023/12/08 07:38:44;;;;;;;4.15;2.72;;;8.50;99.90;;;;;;5055124;28;20076;-76
2023/12/08 07:41:10;;;;;;;0.98;0.88;;;8.60;99.90;;;;;;5052669;28;20067;-75
2023/12/08 07:43:36;;;;;;;0.00;0.00;;;8.50;99.90;;;;;;5062912;28;20483;-75
2023/12/08 07:46:02;;;;;;;0.38;0.38;;;8.40;99.90;;;;;;5048504;28;20378;-74
2023/12/08 07:48:28;;;;;;;0.65;0.65;;;8.40;99.90;;;;;;5057864;28;20014;-76
2023/12/08 07:50:54;;;;;;;2.92;1.98;;;8.50;99.90;;;;;;5055139;28;20446;-79
2023/12/08 07:53:20;;;;;;;0.00;0.00;;;8.50;99.90;;;;;;5053045;28;20382;-76
2023/12/08 07:55:46;;;;;;;0.20;0.20;;;8.80;99.90;;;;;;5053345;28;20039;-74
2023/12/08 07:58:12;;;;;;;32.47;7.50;;;8.70;99.90;;;;;;5053442;28;20048;-76
2023/12/08 08:00:38;;;;;;;1.38;1.27;;;8.60;99.90;;;;;;5053326;28;20067;-75
2023/12/08 08:03:04;;;;;;;16.63;5.78;;;8.70;99.90;;;;;;5042426;28;20021;-75
2023/12/08 08:05:31;;;;;;;9.18;2.88;;;8.80;99.90;;;;;;5052584;28;20393;-75
2023/12/08 08:07:56;;;;;;;3.60;2.83;;;8.70;99.90;;;;;;5053256;28;20044;-75
2023/12/08 08:10:22;;;;;;;1.17;1.05;;;8.90;99.90;;;;;;5053075;28;20021;-74
2023/12/08 08:12:48;;;;;;;22.40;4.30;;;8.70;99.90;;;;;;5053395;28;20381;-75
2023/12/08 08:15:14;;;;;;;27.13;7.72;;;8.80;99.90;;;;;;5052906;28;20488;-75
2023/12/08 08:17:40;;;;;;;10.98;3.63;;;8.90;99.90;;;;;;5052864;28;20028;-74
2023/12/08 08:20:07;;;;;;;5.53;3.42;;;8.80;99.90;;;;;;5053073;28;20041;-75
2023/12/08 08:22:33;;;;;;;0.90;0.90;;;8.80;99.90;;;;;;5051815;28;20219;-75
2023/12/08 08:24:59;;;;;;;11.60;5.22;;;9.00;99.90;;;;;;5051900;28;20028;-76
2023/12/08 08:27:25;;;;;;;13.60;4.22;;;9.00;99.90;;;;;;5052577;28;20100;-75
2023/12/08 08:29:51;;;;;;;5.57;1.98;;;9.20;99.90;;;;;;5053026;28;20057;-75
2023/12/08 08:32:17;;;;;;;10.02;4.07;;;9.40;99.90;;;;;;5052477;28;20021;-76
2023/12/08 08:34:43;;;;;;;4.03;1.45;;;9.20;99.90;;;;;;5051815;28;20083;-77
2023/12/08 08:37:09;;;;;;;5.97;4.43;;;9.20;99.90;;;;;;5051075;28;20029;-77
2023/12/08 08:39:35;;;;;;;33.45;8.07;;;9.20;99.90;;;;;;5023325;28;20129;-77
2023/12/08 08:42:01;;;;;;;21.38;5.20;;;9.30;99.90;;;;;;5052844;28;20025;-77
2023/12/08 08:44:30;;;;;;;3.47;2.83;;;9.30;99.90;;;;;;5052712;28;20025;-77
2023/12/08 08:46:56;;;;;;;0.20;0.20;;;9.30;99.90;;;;;;5052033;28;20025;-77
2023/12/08 08:49:22;;;;;;;12.77;5.18;;;9.30;99.90;;;;;;5052911;28;20092;-76
2023/12/08 08:51:49;;;;;;;7.88;3.53;;;9.40;99.90;;;;;;5052455;28;20032;-77
2023/12/08 08:54:16;;;;;;;16.30;7.38;;;9.40;99.90;;;;;;5052740;28;20139;-77
2023/12/08 08:56:42;;;;;;;16.52;4.80;;;9.50;99.90;;;;;;5052367;28;20021;-77
2023/12/08 08:59:08;;;;;;;2.28;1.75;;;9.50;99.90;;;;;;5052528;28;20033;-77
2023/12/08 09:01:34;;;;;;;10.07;4.25;;;9.60;99.90;;;;;;5052003;28;20033;-76
2023/12/08 09:04:00;;;;;;;2.67;1.50;;;9.60;99.90;;;;;;5052434;28;20044;-77
2023/12/08 09:06:25;;;;;;;12.90;5.55;;;9.70;99.90;;;;;;5050550;28;20039;-76
2023/12/08 09:08:51;;;;;;;17.20;5.05;;;9.50;99.90;;;;;;5033888;28;20023;-77
2023/12/08 09:11:17;;;;;;;21.08;7.10;;;9.50;99.90;;;;;;5052410;28;20108;-77
2023/12/08 09:13:43;;;;;;;21.17;5.43;;;9.60;99.90;;;;;;5052059;28;20451;-76
2023/12/08 09:16:09;;;;;;;11.02;4.88;;;9.60;99.90;;;;;;5052083;28;20408;-76
2023/12/08 09:18:35;;;;;;;8.38;3.80;;;9.60;99.90;;;;;;5050966;28;20025;-76
2023/12/08 09:21:02;;;;;;;24.77;8.38;;;9.70;99.90;;;;;;5052360;28;20044;-77
2023/12/08 09:23:28;;;;;;;6.90;4.35;;;9.60;99.90;;;;;;5052369;28;20086;-77
2023/12/08 09:25:54;;;;;;;3.33;3.03;;;9.70;99.90;;;;;;5052316;28;20469;-76
2023/12/08 09:28:20;;;;;;;1.27;1.17;;;9.80;99.90;;;;;;5052247;28;20029;-77
2023/12/08 09:30:47;;;;;;;18.00;6.03;;;9.70;99.90;;;;;;5052056;28;20082;-76
2023/12/08 09:33:13;;;;;;;7.13;4.40;;;9.90;99.90;;;;;;5052406;28;20091;-77
2023/12/08 09:35:39;;;;;;;28.50;5.93;;;9.80;99.90;;;;;;5052456;28;20044;-77
2023/12/08 09:38:04;;;;;;;0.60;0.57;;;10.00;99.90;;;;;;5034282;28;20409;-77
2023/12/08 09:40:32;;;;;;;5.88;3.15;;;10.00;99.90;;;;;;5053972;28;20400;-77
2023/12/08 09:43:25;;;;;;;6.82;2.30;;;10.00;99.90;;;;;;5055962;28;20035;-77
2023/12/08 09:45:54;;;;;;;11.43;3.53;;;10.10;99.90;;;;;;5054446;28;20076;-77
2023/12/08 09:48:23;;;;;;;2.10;1.60;;;9.90;99.90;;;;;;5054907;28;20017;-77
2023/12/08 09:50:50;;;;;;;12.68;3.92;;;10.00;99.90;;;;;;5056088;28;20029;-77
2023/12/08 09:53:17;;;;;;;9.88;5.72;;;9.90;99.90;;;;;;5055878;28;20017;-76
2023/12/08 09:55:44;;;;;;;8.68;4.90;;;10.00;99.90;;;;;;5054715;28;20029;-77
2023/12/08 09:58:11;;;;;;;9.00;4.00;;;10.00;99.90;;;;;;5055789;28;20493;-76
2023/12/08 10:00:37;;;;;;;1.88;1.75;;;10.10;99.90;;;;;;5055449;28;20035;-77
2023/12/08 10:03:03;;;;;;;8.35;4.60;;;10.20;99.90;;;;;;5055140;28;20465;-77
2023/12/08 10:05:29;;;;;;;1.92;1.73;;;10.10;99.90;;;;;;5054876;28;20120;-75
2023/12/08 10:07:55;;;;;;;6.03;3.17;;;10.10;99.90;;;;;;5053913;28;20017;-76
2023/12/08 10:10:22;;;;;;;12.05;2.17;;;10.40;99.90;;;;;;5055602;28;20056;-76
2023/12/08 10:12:47;;;;;;;20.80;7.75;;;10.50;99.90;;;;;;5055243;28;20013;-75
2023/12/08 10:15:16;;;;;;;4.30;3.67;;;10.40;99.90;;;;;;5054141;28;20099;-76
2023/12/08 10:17:49;;;;;;;2.85;1.27;;;10.40;99.90;;;;;;5055511;28;20025;-76
2023/12/08 10:20:16;;;;;;;1.17;1.15;;;10.40;99.90;;;;;;5055372;28;20037;-76
2023/12/08 10:23:02;;;;;;;4.13;2.60;;;10.50;99.90;;;;;;5055443;28;20033;-76
2023/12/08 10:25:30;;;;;;;17.48;2.20;;;10.60;99.90;;;;;;5055218;28;20025;-76
2023/12/08 10:27:56;;;;;;;16.58;4.30;;;10.50;99.90;;;;;;5054638;28;20035;-76
2023/12/08 10:30:26;;;;;;;32.72;5.18;;;10.60;99.90;;;;;;5054222;28;20021;-76
2023/12/08 10:32:52;;;;;;;1.10;1.00;;;10.60;99.90;;;;;;5054095;28;20035;-76
2023/12/08 10:35:18;;;;;;;13.88;2.00;;;10.50;99.90;;;;;;5055079;28;20032;-76
2023/12/08 10:37:44;;;;;;;6.93;3.38;;;10.50;99.90;;;;;;5055176;28;20043;-76
2023/12/08 10:40:19;;;;;;;11.48;2.95;;;10.50;99.90;;;;;;5053498;28;20044;-76
2023/12/08 10:42:47;;;;;;;10.00;3.47;;;10.60;99.90;;;;;;5053722;28;20025;-76
2023/12/08 10:45:13;;;;;;;5.10;3.13;;;10.50;99.90;;;;;;5054894;28;20029;-76
2023/12/08 10:47:44;;;;;;;1.65;1.55;;;10.70;99.90;;;;;;5054816;28;20021;-76
2023/12/08 10:50:11;;;;;;;10.30;5.40;;;10.70;99.90;;;;;;5054826;28;20516;-76
2023/12/08 10:52:38;;;;;;;2.55;0.68;;;10.80;99.90;;;;;;5052984;28;20040;-76
2023/12/08 10:55:11;;;;;;;3.05;1.30;;;10.80;99.90;;;;;;5053430;28;20117;-76
2023/12/08 10:57:38;;;;;;;6.10;4.50;;;10.90;99.90;;;;;;5054691;28;20147;-76
2023/12/08 11:00:12;;;;;;;23.17;7.13;;;10.80;99.90;;;;;;5053232;28;20033;-76
2023/12/08 11:02:42;;;;;;;7.18;2.42;;;10.70;99.90;;;;;;5054848;28;20040;-76
2023/12/08 11:05:12;;;;;;;16.63;5.03;;;10.60;99.90;;;;;;5054175;28;20485;-76
2023/12/08 11:07:40;;;;;;;5.78;1.48;;;10.50;99.90;;;;;;5054627;28;20115;-76
2023/12/08 11:10:07;;;;;;;7.32;2.13;;;10.60;99.90;;;;;;5052898;28;20032;-76
2023/12/08 11:12:49;;;;;;;13.25;6.32;;;10.70;99.90;;;;;;5054462;28;20017;-76
2023/12/08 11:15:18;;;;;;;4.00;2.92;;;10.50;99.90;;;;;;5054394;28;20114;-76
2023/12/08 11:17:58;;;;;;;7.35;3.45;;;10.60;99.90;;;;;;5054767;28;20021;-79
2023/12/08 11:20:25;;;;;;;9.07;4.40;;;10.60;99.90;;;;;;5053893;28;20036;-76
2023/12/08 11:22:52;;;;;;;11.07;4.57;;;10.80;99.90;;;;;;5053391;28;20071;-76
2023/12/08 11:25:27;;;;;;;24.10;7.90;;;10.90;99.90;;;;;;5053759;28;20500;-72
2023/12/08 11:27:59;;;;;;;0.32;0.32;;;10.80;99.90;;;;;;5053963;28;20080;-75
2023/12/08 11:30:34;;;;;;;2.03;1.85;;;10.90;99.90;;;;;;5053900;28;20496;-75
2023/12/08 11:33:12;;;;;;;2.03;1.90;;;10.70;99.90;;;;;;5054165;28;20029;-74
2023/12/08 11:35:38;;;;;;;3.50;2.55;;;10.70;99.90;;;;;;5053724;28;20469;-75
2023/12/08 11:38:05;;;;;;;5.43;2.45;;;10.80;99.90;;;;;;5053584;28;20033;-74
2023/12/08 11:40:31;;;;;;;6.97;4.22;;;10.90;99.90;;;;;;5053252;28;20036;-74
2023/12/08 11:42:57;;;;;;;7.10;2.28;;;11.10;99.90;;;;;;5053726;28;20033;-74
2023/12/08 11:45:23;;;;;;;8.43;4.47;;;10.80;99.90;;;;;;5053794;28;20037;-75
2023/12/08 11:47:49;;;;;;;5.22;3.08;;;10.90;99.90;;;;;;5052231;28;20036;-72
2023/12/08 11:50:17;;;;;;;7.10;3.85;;;10.70;99.90;;;;;;5053469;28;20035;-72
2023/12/08 11:52:43;;;;;;;1.42;1.33;;;10.80;99.90;;;;;;5053455;28;20486;-73
2023/12/08 11:55:16;;;;;;;11.27;4.82;;;10.90;99.90;;;;;;5052935;28;20037;-78
2023/12/08 11:58:02;;;;;;;1.38;1.00;;;10.90;99.90;;;;;;5053541;28;20375;-74
2023/12/08 12:00:30;;;;;;;10.07;4.55;;;10.80;99.90;;;;;;5050967;28;20396;-75
2023/12/08 12:02:57;;;;;;;2.97;2.38;;;10.90;99.90;;;;;;5051486;28;20037;-74
2023/12/08 12:05:23;;;;;;;2.33;1.08;;;10.90;99.90;;;;;;5052791;28;20115;-75
2023/12/08 12:07:54;;;;;;;1.10;1.00;;;10.90;99.90;;;;;;5053075;28;20523;-75
2023/12/08 12:10:30;;;;;;;3.38;1.50;;;11.00;99.90;;;;;;5052734;28;20489;-75
2023/12/08 12:13:05;;;;;;;3.97;1.95;;;10.90;99.90;;;;;;5053341;28;20043;-75
2023/12/08 12:15:33;;;;;;;16.77;4.80;;;11.10;99.90;;;;;;5025225;28;20425;-72
2023/12/08 12:18:01;;;;;;;0.73;0.73;;;11.00;99.90;;;;;;5053027;28;20028;-72
2023/12/08 12:20:45;;;;;;;8.95;4.65;;;11.00;99.90;;;;;;5051432;28;20395;-73
2023/12/08 12:23:13;;;;;;;4.75;2.40;;;10.90;99.90;;;;;;5053155;28;20082;-72
2023/12/08 12:25:41;;;;;;;11.43;3.53;;;11.20;99.90;;;;;;5052470;28;20044;-73
2023/12/08 12:28:07;;;;;;;11.95;4.75;;;11.30;99.90;;;;;;5051890;28;20108;-73
2023/12/08 12:30:33;;;;;;;20.25;5.63;;;11.20;99.90;;;;;;5052630;28;20063;-72
2023/12/08 12:32:58;;;;;;;6.18;2.67;;;11.30;99.90;;;;;;5052427;28;20451;-73
2023/12/08 12:35:24;;;;;;;45.63;4.03;;;11.30;99.90;;;;;;5048651;28;20060;-72
2023/12/08 12:37:52;;;;;;;13.30;5.20;;;11.30;99.90;;;;;;5052194;28;20024;-73
2023/12/08 12:40:19;;;;;;;3.83;2.47;;;11.10;99.90;;;;;;5052756;28;20436;-72
2023/12/08 12:42:47;;;;;;;0.32;0.13;;;11.20;99.90;;;;;;5052619;28;20090;-73
2023/12/08 12:45:29;;;;;;;0.32;0.32;;;11.20;99.90;;;;;;5053058;28;20469;-73
2023/12/08 12:47:59;;;;;;;1.95;1.38;;;11.30;99.90;;;;;;5052518;28;20033;-73
2023/12/08 12:50:25;;;;;;;4.28;1.55;;;11.20;99.90;;;;;;5051463;28;20098;-73